createdAt,value
2023-03-01T00:01:51.664Z,74.65
2023-03-01T00:04:20.412Z,74.64
2023-03-01T00:06:50.560Z,74.70
2023-03-01T00:09:18.716Z,74.53
2023-03-01T00:11:48.749Z,74.68
2023-03-01T00:14:19.987Z,74.76
2023-03-01T00:16:53.267Z,74.88
2023-03-01T00:19:23.154Z,75.25
2023-03-01T00:21:51.369Z,75.30
2023-03-01T00:24:20.104Z,75.29
2023-03-01T00:26:49.117Z,75.15
2023-03-01T00:29:17.143Z,75.31
2023-03-01T00:31:46.106Z,75.43
2023-03-01T00:34:15.246Z,75.52
2023-03-01T00:36:44.213Z,75.62
2023-03-01T00:39:15.113Z,75.52
2023-03-01T00:41:45.603Z,75.41
2023-03-01T00:44:16.702Z,75.39
2023-03-01T00:46:44.680Z,75.41
2023-03-01T00:49:13.269Z,75.41
2023-03-01T00:51:42.862Z,75.48
2023-03-01T00:54:11.033Z,75.39
2023-03-01T00:56:41.119Z,75.14
2023-03-01T00:59:09.548Z,75.25
2023-03-01T01:01:39.311Z,75.29
2023-03-01T01:04:10.439Z,75.39
2023-03-01T01:06:47.309Z,75.48
2023-03-01T01:09:20.935Z,75.71
2023-03-01T01:11:50.312Z,75.45
2023-03-01T01:14:19.409Z,75.30
2023-03-01T01:16:47.875Z,75.22
2023-03-01T01:19:16.443Z,75.22
2023-03-01T01:21:46.027Z,75.39
2023-03-01T01:24:14.357Z,75.49
2023-03-01T01:26:42.433Z,75.29
2023-03-01T01:29:10.621Z,75.09
2023-03-01T01:31:42.278Z,75.06
2023-03-01T01:34:17.491Z,74.99
2023-03-01T01:36:47.501Z,75.06
2023-03-01T01:39:16.782Z,75.07
2023-03-01T01:41:44.942Z,75.03
2023-03-01T01:44:27.637Z,74.87
2023-03-01T01:47:10.933Z,74.77
2023-03-01T01:49:48.879Z,74.90
2023-03-01T01:52:26.461Z,74.86
2023-03-01T01:54:57.337Z,74.90
2023-03-01T01:57:29.158Z,74.84
2023-03-01T01:59:59.844Z,74.88
2023-03-01T02:02:28.438Z,74.55
2023-03-01T02:05:21.787Z,74.63
2023-03-01T02:07:50.133Z,74.63
2023-03-01T02:10:24.154Z,74.70
2023-03-01T02:12:53.037Z,74.65
2023-03-01T02:15:23.280Z,74.76
2023-03-01T02:17:55.480Z,74.65
2023-03-01T02:20:30.323Z,74.32
2023-03-01T02:23:00.152Z,74.42
2023-03-01T02:25:57.163Z,74.41
2023-03-01T02:28:38.408Z,74.56
2023-03-01T02:31:25.961Z,74.73
2023-03-01T02:33:57.019Z,74.65
2023-03-01T02:36:32.007Z,74.45
2023-03-01T02:39:07.466Z,74.24
2023-03-01T02:41:39.066Z,74.29
2023-03-01T02:44:09.498Z,74.40
2023-03-01T02:46:44.285Z,74.36
2023-03-01T02:49:39.854Z,74.40
2023-03-01T02:52:44.406Z,74.28
2023-03-01T02:55:14.690Z,73.90
2023-03-01T02:57:44.700Z,74.10
2023-03-01T03:00:21.261Z,74.01
2023-03-01T03:02:51.722Z,74.08
2023-03-01T03:05:25.106Z,74.01
2023-03-01T03:08:01.066Z,74.01
2023-03-01T03:10:33.117Z,74.13
2023-03-01T03:13:11.532Z,73.97
2023-03-01T03:15:41.760Z,73.86
2023-03-01T03:18:12.842Z,73.96
2023-03-01T03:20:41.951Z,74.09
2023-03-01T03:23:11.031Z,74.29
2023-03-01T03:25:39.667Z,74.40
2023-03-01T03:28:11.153Z,74.47
2023-03-01T03:30:40.654Z,74.48
2023-03-01T03:33:11.919Z,74.52
2023-03-01T03:35:47.048Z,74.56
2023-03-01T03:38:18.071Z,74.66
2023-03-01T03:41:05.466Z,74.82
2023-03-01T03:43:37.468Z,74.85
2023-03-01T03:46:08.700Z,74.92
2023-03-01T03:48:40.925Z,74.94
2023-03-01T03:51:17.443Z,74.91
2023-03-01T03:53:45.965Z,74.95
2023-03-01T03:56:14.208Z,74.91
2023-03-01T03:58:43.411Z,75.13
2023-03-01T04:01:12.080Z,75.23
2023-03-01T04:03:43.042Z,75.35
2023-03-01T04:06:11.571Z,75.40
2023-03-01T04:08:42.096Z,75.22
2023-03-01T04:11:28.280Z,75.42
2023-03-01T04:13:59.503Z,75.45
2023-03-01T04:16:27.767Z,75.67
2023-03-01T04:18:57.503Z,75.79
2023-03-01T04:21:26.034Z,75.93
2023-03-01T04:23:54.404Z,76.07
2023-03-01T04:26:26.466Z,76.05
2023-03-01T04:28:54.855Z,76.20
2023-03-01T04:31:24.272Z,76.07
2023-03-01T04:33:54.066Z,76.28
2023-03-01T04:36:27.244Z,76.41
2023-03-01T04:38:55.728Z,76.49
2023-03-01T04:41:27.335Z,76.66
2023-03-01T04:43:55.847Z,76.40
2023-03-01T04:46:24.130Z,76.27
2023-03-01T04:48:57.306Z,76.42
2023-03-01T04:51:27.738Z,76.62
2023-03-01T04:53:59.691Z,76.62
2023-03-01T04:56:28.757Z,76.62
2023-03-01T04:58:57.352Z,76.63
2023-03-01T05:01:26.785Z,76.43
2023-03-01T05:03:55.882Z,76.26
2023-03-01T05:06:24.304Z,76.54
2023-03-01T05:08:53.251Z,76.56
2023-03-01T05:11:25.220Z,76.75
2023-03-01T05:13:56.186Z,76.67
2023-03-01T05:16:24.298Z,76.73
2023-03-01T05:18:56.656Z,76.67
2023-03-01T05:21:26.231Z,76.56
2023-03-01T05:23:59.425Z,76.49
2023-03-01T05:26:29.935Z,76.53
2023-03-01T05:29:00.485Z,76.48
2023-03-01T05:31:32.146Z,76.57
2023-03-01T05:34:00.469Z,76.63
2023-03-01T05:36:30.106Z,76.73
2023-03-01T05:38:58.349Z,76.61
2023-03-01T05:41:26.524Z,76.54
2023-03-01T05:43:55.675Z,76.66
2023-03-01T05:46:25.841Z,76.52
2023-03-01T05:48:54.528Z,76.66
2023-03-01T05:51:23.336Z,76.76
2023-03-01T05:53:52.146Z,76.74
2023-03-01T05:56:20.314Z,76.62
2023-03-01T05:58:49.675Z,76.73
2023-03-01T06:01:18.442Z,76.78
2023-03-01T06:03:48.389Z,76.74
2023-03-01T06:06:17.672Z,76.52
2023-03-01T06:08:52.017Z,76.58
2023-03-01T06:11:22.234Z,76.15
2023-03-01T06:13:50.596Z,75.97
2023-03-01T06:16:23.548Z,75.74
2023-03-01T06:18:52.685Z,75.89
2023-03-01T06:21:20.895Z,75.81
2023-03-01T06:23:48.954Z,75.80
2023-03-01T06:26:17.444Z,75.76
2023-03-01T06:28:47.289Z,75.50
2023-03-01T06:31:18.026Z,75.31
2023-03-01T06:33:46.212Z,75.17
2023-03-01T06:36:14.698Z,75.13
2023-03-01T06:38:44.382Z,74.99
2023-03-01T06:41:12.805Z,75.06
2023-03-01T06:43:41.016Z,75.31
2023-03-01T06:46:09.284Z,75.08
2023-03-01T06:48:38.436Z,75.04
2023-03-01T06:51:08.553Z,75.02
2023-03-01T06:53:37.116Z,74.95
2023-03-01T06:56:05.817Z,75.01
2023-03-01T06:58:36.717Z,75.11
2023-03-01T07:01:09.040Z,75.14
2023-03-01T07:03:38.340Z,74.97
2023-03-01T07:06:07.197Z,75.29
2023-03-01T07:08:36.301Z,75.68
2023-03-01T07:11:05.595Z,76.44
2023-03-01T07:13:36.868Z,76.65
2023-03-01T07:16:09.725Z,76.78
2023-03-01T07:18:37.877Z,77.08
2023-03-01T07:21:09.296Z,77.17
2023-03-01T07:23:40.415Z,77.06
2023-03-01T07:26:09.739Z,77.20
2023-03-01T07:28:40.191Z,77.24
2023-03-01T07:31:08.853Z,77.28
2023-03-01T07:33:38.541Z,77.09
2023-03-01T07:36:07.854Z,76.81
2023-03-01T07:38:37.822Z,76.30
2023-03-01T07:41:06.966Z,76.15
2023-03-01T07:43:38.550Z,76.02
2023-03-01T07:46:08.030Z,75.69
2023-03-01T07:48:36.987Z,75.70
2023-03-01T07:51:07.135Z,75.54
2023-03-01T07:53:36.371Z,75.30
2023-03-01T07:56:12.759Z,75.10
2023-03-01T07:58:43.517Z,74.72
2023-03-01T08:01:16.733Z,74.30
2023-03-01T08:03:53.041Z,74.36
2023-03-01T08:06:23.444Z,74.37
2023-03-01T08:09:27.043Z,74.08
2023-03-01T08:11:57.700Z,73.69
2023-03-01T08:14:44.466Z,73.61
2023-03-01T08:17:15.701Z,73.28
2023-03-01T08:19:46.021Z,72.84
2023-03-01T08:22:14.742Z,72.51
2023-03-01T08:24:43.969Z,72.59
2023-03-01T08:27:13.308Z,72.42
2023-03-01T08:29:41.456Z,72.00
2023-03-01T08:32:10.244Z,71.99
2023-03-01T08:34:39.117Z,72.18
2023-03-01T08:37:09.412Z,72.10
2023-03-01T08:39:37.880Z,72.03
2023-03-01T08:42:06.952Z,71.91
2023-03-01T08:44:36.271Z,71.66
2023-03-01T08:47:06.320Z,71.53
2023-03-01T08:49:35.097Z,71.12
2023-03-01T08:52:03.548Z,70.60
2023-03-01T08:54:34.757Z,70.25
2023-03-01T08:57:04.131Z,70.02
2023-03-01T08:59:38.269Z,69.90
2023-03-01T09:02:07.517Z,69.87
2023-03-01T09:04:36.065Z,69.43
2023-03-01T09:07:05.539Z,69.14
2023-03-01T09:09:34.353Z,69.27
2023-03-01T09:12:04.688Z,68.90
2023-03-01T09:14:38.610Z,67.90
2023-03-01T09:17:08.241Z,67.81
2023-03-01T09:19:37.852Z,66.86
2023-03-01T09:22:06.019Z,66.93
2023-03-01T09:24:34.606Z,66.03
2023-03-01T09:27:04.010Z,64.64
2023-03-01T09:29:32.605Z,63.50
2023-03-01T09:32:01.789Z,62.48
2023-03-01T09:34:30.950Z,62.58
2023-03-01T09:36:59.861Z,62.78
2023-03-01T09:39:28.336Z,61.86
2023-03-01T09:42:04.159Z,61.40
2023-03-01T09:44:58.729Z,60.85
2023-03-01T09:47:36.058Z,61.14
2023-03-01T09:50:26.969Z,60.95
2023-03-01T09:53:05.396Z,61.18
2023-03-01T09:55:48.677Z,61.68
2023-03-01T09:58:30.778Z,62.40
2023-03-01T10:01:14.738Z,62.61
2023-03-01T10:03:46.548Z,62.63
2023-03-01T10:06:35.115Z,63.13
2023-03-01T10:09:16.274Z,63.69
2023-03-01T10:11:54.032Z,63.73
2023-03-01T10:14:35.436Z,63.95
2023-03-01T10:17:10.452Z,64.00
2023-03-01T10:19:43.959Z,63.56
2023-03-01T10:22:29.502Z,63.38
2023-03-01T10:25:00.102Z,63.85
2023-03-01T10:27:38.781Z,63.71
2023-03-01T10:30:33.589Z,63.51
2023-03-01T10:33:03.048Z,63.43
2023-03-01T10:35:38.086Z,63.51
2023-03-01T10:40:25.160Z,63.42
2023-03-01T10:42:52.374Z,63.01
2023-03-01T10:45:38.690Z,62.53
2023-03-01T10:48:14.169Z,62.60
2023-03-01T10:50:46.412Z,63.10
2023-03-01T10:53:26.292Z,63.10
2023-03-01T10:56:01.127Z,63.05
2023-03-01T10:58:31.013Z,63.51
2023-03-01T11:01:02.582Z,63.29
2023-03-01T11:03:35.395Z,63.37
2023-03-01T11:06:13.507Z,63.93
2023-03-01T11:08:42.439Z,64.15
2023-03-01T11:11:34.537Z,64.74
2023-03-01T11:14:26.530Z,65.24
2023-03-01T11:17:04.904Z,65.80
2023-03-01T11:19:32.595Z,66.21
2023-03-01T11:22:20.055Z,66.65
2023-03-01T11:24:54.752Z,67.14
2023-03-01T11:27:39.457Z,67.27
2023-03-01T11:30:13.387Z,67.52
2023-03-01T11:32:41.997Z,67.79
2023-03-01T11:35:21.985Z,68.01
2023-03-01T11:38:07.188Z,68.28
2023-03-01T11:40:44.369Z,68.74
2023-03-01T11:43:23.100Z,68.88
2023-03-01T11:46:21.143Z,69.01
2023-03-01T11:48:54.827Z,68.98
2023-03-01T11:51:26.438Z,69.21
2023-03-01T11:54:30.535Z,69.52
2023-03-01T11:57:28.857Z,69.75
2023-03-01T12:00:07.792Z,70.19
2023-03-01T12:02:43.823Z,70.81
2023-03-01T12:05:35.079Z,71.30
2023-03-01T12:08:21.277Z,71.92
2023-03-01T12:10:50.741Z,71.97
2023-03-01T12:13:48.691Z,72.11
2023-03-01T12:16:37.643Z,72.40
2023-03-01T12:19:15.699Z,72.51
2023-03-01T12:22:09.012Z,72.60
2023-03-01T12:24:58.577Z,72.65
2023-03-01T12:27:32.779Z,72.67
2023-03-01T12:30:18.077Z,72.80
2023-03-01T12:32:48.657Z,72.68
2023-03-01T12:35:36.630Z,72.95
2023-03-01T12:38:13.154Z,72.55
2023-03-01T12:40:58.968Z,72.33
2023-03-01T12:43:48.691Z,72.61
2023-03-01T12:46:20.344Z,72.43
2023-03-01T12:48:59.091Z,72.70
2023-03-01T12:51:29.012Z,72.74
2023-03-01T12:53:56.517Z,72.63
2023-03-01T12:56:26.433Z,72.80
2023-03-01T12:59:15.192Z,72.98
2023-03-01T13:01:44.863Z,73.04
2023-03-01T13:04:31.724Z,73.23
2023-03-01T13:07:22.295Z,73.62
2023-03-01T13:10:01.971Z,73.89
2023-03-01T13:13:02.132Z,74.05
2023-03-01T13:15:36.454Z,74.38
2023-03-01T13:18:19.219Z,74.43
2023-03-01T13:20:48.869Z,74.51
2023-03-01T13:23:19.837Z,74.41
2023-03-01T13:26:02.027Z,74.76
2023-03-01T13:28:53.168Z,74.80
2023-03-01T13:31:19.855Z,74.84
2023-03-01T13:34:01.399Z,75.06
2023-03-01T13:36:29.444Z,75.19
2023-03-01T13:38:59.743Z,75.20
2023-03-01T13:41:44.280Z,75.48
2023-03-01T13:44:31.944Z,75.22
2023-03-01T13:47:31.043Z,75.26
2023-03-01T13:50:18.887Z,75.17
2023-03-01T13:52:51.170Z,74.93
2023-03-01T13:55:35.368Z,74.94
2023-03-01T13:58:05.570Z,74.63
2023-03-01T14:00:37.889Z,74.68
2023-03-01T14:03:35.051Z,74.69
2023-03-01T14:06:29.988Z,74.65
2023-03-01T14:09:15.839Z,74.18
2023-03-01T14:11:54.685Z,74.24
2023-03-01T14:14:32.245Z,74.26
2023-03-01T14:17:29.710Z,74.21
2023-03-01T14:20:01.012Z,74.20
2023-03-01T14:22:35.965Z,74.18
2023-03-01T14:25:27.707Z,74.28
2023-03-01T14:28:14.749Z,73.97
2023-03-01T14:30:56.130Z,74.00
2023-03-01T14:33:34.333Z,74.11
2023-03-01T14:36:04.789Z,74.15
2023-03-01T14:38:45.441Z,74.50
2023-03-01T14:41:23.407Z,74.64
2023-03-01T14:44:01.556Z,74.83
2023-03-01T14:46:41.911Z,75.06
2023-03-01T14:49:21.026Z,75.10
2023-03-01T14:52:03.058Z,75.01
2023-03-01T14:54:45.948Z,74.88
2023-03-01T14:57:27.222Z,74.98
2023-03-01T15:00:04.589Z,75.11
2023-03-01T15:02:51.500Z,75.32
2023-03-01T15:05:33.768Z,75.35
2023-03-01T15:08:02.041Z,75.33
2023-03-01T15:10:43.989Z,75.49
2023-03-01T15:13:25.455Z,75.16
2023-03-01T15:16:07.786Z,75.02
2023-03-01T15:18:44.678Z,75.15
2023-03-01T15:21:25.683Z,75.24
2023-03-01T15:24:01.227Z,75.42
2023-03-01T15:26:44.772Z,75.61
2023-03-01T15:29:20.204Z,75.56
2023-03-01T15:32:05.270Z,75.71
2023-03-01T15:34:40.454Z,75.76
2023-03-01T15:37:42.737Z,75.52
2023-03-01T15:40:38.824Z,75.44
2023-03-01T15:43:40.985Z,75.64
2023-03-01T15:46:35.538Z,75.74
2023-03-01T15:49:54.405Z,75.77
2023-03-01T15:52:40.186Z,76.04
2023-03-01T15:55:18.009Z,76.09
2023-03-01T15:58:01.958Z,76.23
2023-03-01T16:00:30.218Z,76.16
2023-03-01T16:03:04.360Z,76.26
2023-03-01T16:05:33.087Z,76.27
2023-03-01T16:08:01.684Z,76.40
2023-03-01T16:10:34.471Z,76.48
2023-03-01T16:13:05.145Z,76.52
2023-03-01T16:15:34.757Z,76.53
2023-03-01T16:18:02.369Z,76.54
2023-03-01T16:20:32.779Z,76.22
2023-03-01T16:23:05.955Z,76.10
2023-03-01T16:25:38.194Z,75.89
2023-03-01T16:28:14.085Z,75.67
2023-03-01T16:31:19.603Z,75.29
2023-03-01T16:33:58.626Z,74.90
2023-03-01T16:36:30.288Z,74.67
2023-03-01T16:39:02.942Z,74.69
2023-03-01T16:41:30.802Z,74.52
2023-03-01T16:43:58.641Z,74.11
2023-03-01T16:46:28.585Z,74.18
2023-03-01T16:48:58.381Z,74.36
2023-03-01T16:51:25.945Z,74.51
2023-03-01T16:53:53.009Z,74.63
2023-03-01T16:56:21.502Z,74.82
2023-03-01T16:59:06.415Z,74.87
2023-03-01T17:01:42.504Z,74.96
2023-03-01T17:04:13.663Z,74.92
2023-03-01T17:06:42.071Z,74.82
2023-03-01T17:09:09.940Z,75.01
2023-03-01T17:11:36.591Z,74.96
2023-03-01T17:14:08.317Z,75.19
2023-03-01T17:16:36.352Z,75.06
2023-03-01T17:19:03.921Z,75.15
2023-03-01T17:21:32.076Z,75.09
2023-03-01T17:23:59.323Z,74.96
2023-03-01T17:26:28.919Z,74.70
2023-03-01T17:28:58.581Z,74.61
2023-03-01T17:31:25.508Z,74.39
2023-03-01T17:33:58.188Z,74.25
2023-03-01T17:39:47.098Z,74.34
2023-03-01T17:42:25.405Z,74.24
2023-03-01T17:45:01.587Z,74.22
2023-03-01T17:47:47.884Z,74.17
2023-03-01T17:50:27.420Z,74.01
2023-03-01T17:53:22.911Z,74.11
2023-03-01T17:55:59.531Z,73.96
2023-03-01T17:58:30.640Z,73.69
2023-03-01T18:01:13.326Z,73.86
2023-03-01T18:03:41.261Z,73.84
2023-03-01T18:06:16.466Z,74.00
2023-03-01T18:08:47.523Z,74.13
2023-03-01T18:11:19.880Z,74.20
2023-03-01T18:13:49.692Z,74.18
2023-03-01T18:16:17.534Z,74.39
2023-03-01T18:18:47.438Z,74.43
2023-03-01T18:21:15.613Z,74.33
2023-03-01T18:23:50.588Z,74.25
2023-03-01T18:26:22.782Z,74.22
2023-03-01T18:29:01.136Z,74.35
2023-03-01T18:31:45.676Z,74.07
2023-03-01T18:34:18.620Z,74.26
2023-03-01T18:37:08.699Z,74.02
2023-03-01T18:39:38.022Z,73.91
2023-03-01T18:42:07.906Z,73.74
2023-03-01T18:44:38.327Z,73.27
2023-03-01T18:47:05.971Z,73.18
2023-03-01T18:49:38.550Z,73.00
2023-03-01T18:52:08.180Z,72.40
2023-03-01T18:54:36.442Z,72.01
2023-03-01T18:57:10.085Z,71.65
2023-03-01T18:59:42.063Z,71.16
2023-03-01T19:02:13.799Z,71.01
2023-03-01T19:04:42.256Z,70.65
2023-03-01T19:07:31.405Z,70.32
2023-03-01T19:10:01.280Z,70.34
2023-03-01T19:12:29.468Z,70.27
2023-03-01T19:14:56.780Z,70.13
2023-03-01T19:17:35.575Z,70.17
2023-03-01T19:20:10.449Z,70.09
2023-03-01T19:22:41.731Z,70.11
2023-03-01T19:25:11.873Z,69.88
2023-03-01T19:27:41.658Z,69.88
2023-03-01T19:30:11.417Z,70.00
2023-03-01T19:32:41.124Z,70.03
2023-03-01T19:35:08.365Z,69.90
2023-03-01T19:37:36.063Z,69.63
2023-03-01T19:40:06.052Z,69.66
2023-03-01T19:42:38.548Z,69.54
2023-03-01T19:45:10.449Z,69.60
2023-03-01T19:47:39.202Z,69.36
2023-03-01T19:50:06.551Z,69.21
2023-03-01T19:52:33.820Z,69.25
2023-03-01T19:55:09.469Z,69.19
2023-03-01T19:57:37.674Z,69.23
2023-03-01T20:00:06.057Z,69.09
2023-03-01T20:02:40.354Z,69.18
2023-03-01T20:05:07.928Z,68.99
2023-03-01T20:07:39.582Z,69.14
2023-03-01T20:10:07.398Z,69.23
2023-03-01T20:12:36.503Z,69.13
2023-03-01T20:15:03.728Z,69.12
2023-03-01T20:17:30.625Z,69.19
2023-03-01T20:19:57.810Z,69.05
2023-03-01T20:22:25.907Z,69.09
2023-03-01T20:24:52.878Z,69.02
2023-03-01T20:27:23.135Z,68.85
2023-03-01T20:29:49.807Z,68.84
2023-03-01T20:32:17.067Z,68.59
2023-03-01T20:34:44.478Z,68.48
2023-03-01T20:37:11.431Z,68.34
2023-03-01T20:39:39.023Z,68.48
2023-03-01T20:42:08.891Z,68.56
2023-03-01T20:44:42.554Z,68.61
2023-03-01T20:47:12.307Z,68.65
2023-03-01T20:49:44.249Z,68.83
2023-03-01T20:52:11.010Z,69.00
2023-03-01T20:54:38.059Z,69.21
2023-03-01T20:57:04.613Z,69.21
2023-03-01T20:59:31.430Z,69.31
2023-03-01T21:01:58.902Z,69.50
2023-03-01T21:04:25.731Z,69.54
2023-03-01T21:06:53.261Z,69.50
2023-03-01T21:09:21.813Z,69.61
2023-03-01T21:11:53.466Z,69.66
2023-03-01T21:14:49.132Z,69.66
2023-03-01T21:17:24.182Z,69.91
2023-03-01T21:19:50.829Z,69.81
2023-03-01T21:22:17.606Z,69.94
2023-03-01T21:24:44.512Z,69.99
2023-03-01T21:27:11.212Z,70.09
2023-03-01T21:29:42.540Z,70.14
2023-03-01T21:32:09.389Z,70.17
2023-03-01T21:34:36.791Z,70.07
2023-03-01T21:37:04.419Z,69.86
2023-03-01T21:39:31.848Z,69.74
2023-03-01T21:42:04.679Z,69.74
2023-03-01T21:44:34.890Z,69.51
2023-03-01T21:47:02.565Z,69.69
2023-03-01T21:49:29.283Z,69.67
2023-03-01T21:51:56.052Z,69.69
2023-03-01T21:54:22.859Z,69.74
2023-03-01T21:56:50.410Z,69.79
2023-03-01T21:59:24.877Z,69.75
2023-03-01T22:01:52.696Z,69.71
2023-03-01T22:04:19.827Z,69.96
2023-03-01T22:06:47.110Z,69.89
2023-03-01T22:09:23.418Z,69.69
2023-03-01T22:11:57.823Z,69.79
2023-03-01T22:14:28.830Z,69.79
2023-03-01T22:17:03.634Z,69.69
2023-03-01T22:19:33.176Z,69.82
2023-03-01T22:22:02.692Z,69.72
2023-03-01T22:24:36.079Z,69.94
2023-03-01T22:27:05.385Z,70.07
2023-03-01T22:29:47.729Z,70.07
2023-03-01T22:32:14.476Z,70.30
2023-03-01T22:34:47.415Z,70.42
2023-03-01T22:37:15.711Z,70.36
2023-03-01T22:39:50.943Z,70.37
2023-03-01T22:42:19.983Z,70.49
2023-03-01T22:44:48.207Z,70.60
2023-03-01T22:47:15.716Z,70.81
2023-03-01T22:49:48.601Z,70.99
2023-03-01T22:52:21.922Z,71.06
2023-03-01T22:54:54.609Z,71.18
2023-03-01T22:58:10.772Z,71.58
2023-03-01T23:00:42.779Z,71.67
2023-03-01T23:03:20.404Z,71.75
2023-03-01T23:05:54.099Z,71.72
2023-03-01T23:08:37.649Z,71.88
2023-03-01T23:11:17.871Z,71.96
2023-03-01T23:13:49.883Z,72.05
2023-03-01T23:16:26.733Z,72.02
2023-03-01T23:19:01.692Z,72.14
2023-03-01T23:21:47.636Z,72.19
2023-03-01T23:24:23.613Z,72.02
2023-03-01T23:26:53.519Z,72.07
2023-03-01T23:29:22.429Z,72.15
2023-03-01T23:31:50.574Z,72.20
2023-03-01T23:34:19.287Z,72.36
2023-03-01T23:36:47.990Z,72.30
2023-03-01T23:39:17.064Z,72.28
2023-03-01T23:41:45.482Z,72.39
2023-03-01T23:44:16.906Z,72.53
2023-03-01T23:46:45.407Z,72.39
2023-03-01T23:49:14.989Z,72.27
2023-03-01T23:51:47.744Z,72.37
2023-03-01T23:54:18.085Z,72.33
2023-03-01T23:56:46.680Z,72.24
2023-03-01T23:59:18.843Z,72.31
